createdAt,value
2024-04-06T00:04:19.820Z,78.97
2024-04-06T00:09:22.972Z,81.53
2024-04-06T00:14:30.630Z,82.63
2024-04-06T00:19:39.726Z,82.04
2024-04-06T00:24:43.960Z,82.32
2024-04-06T00:29:48.997Z,79.06
2024-04-06T00:34:51.715Z,81.73
2024-04-06T00:39:54.211Z,83.11
2024-04-06T00:45:02.324Z,84.94
2024-04-06T00:50:17.038Z,83.91
2024-04-06T00:55:21.112Z,85.95
2024-04-06T01:00:30.535Z,86.61
2024-04-06T01:05:35.577Z,86.96
2024-04-06T01:10:40.819Z,87.01
2024-04-06T01:15:43.825Z,87.02
2024-04-06T01:20:48.389Z,84.48
2024-04-06T01:25:55.611Z,81.72
2024-04-06T01:30:58.792Z,85.13
2024-04-06T01:36:02.085Z,86.61
2024-04-06T01:41:07.548Z,84.83
2024-04-06T01:46:11.363Z,84.47
2024-04-06T01:51:20.849Z,85.66
2024-04-06T01:56:32.457Z,85.50
2024-04-06T02:01:37.450Z,84.69
2024-04-06T02:06:40.157Z,85.83
2024-04-06T02:11:45.387Z,83.76
2024-04-06T02:16:53.193Z,86.20
2024-04-06T02:22:01.306Z,85.85
2024-04-06T02:27:04.984Z,81.62
2024-04-06T02:32:09.259Z,86.26
2024-04-06T02:37:12.096Z,86.75
2024-04-06T02:42:18.179Z,85.59
2024-04-06T02:47:27.089Z,84.08
2024-04-06T02:52:29.945Z,84.20
2024-04-06T02:57:35.188Z,86.00
2024-04-06T03:02:38.178Z,87.90
2024-04-06T03:07:41.172Z,84.65
2024-04-06T03:12:47.933Z,86.25
2024-04-06T03:17:52.302Z,87.05
2024-04-06T03:23:03.146Z,86.08
2024-04-06T03:28:11.499Z,85.83
2024-04-06T03:33:14.140Z,84.48
2024-04-06T03:38:19.529Z,85.74
2024-04-06T03:43:27.864Z,86.17
2024-04-06T03:48:34.129Z,86.01
2024-04-06T03:53:39.747Z,84.64
2024-04-06T03:58:43.653Z,85.32
2024-04-06T04:03:46.417Z,85.94
2024-04-06T04:08:49.119Z,85.92
2024-04-06T04:13:54.904Z,86.81
2024-04-06T04:18:57.868Z,86.86
2024-04-06T04:24:06.170Z,86.85
2024-04-06T04:29:11.397Z,87.40
2024-04-06T04:34:16.605Z,86.30
2024-04-06T04:39:21.553Z,85.03
2024-04-06T04:49:42.155Z,83.33
2024-04-06T04:54:47.807Z,78.11
2024-04-06T04:59:50.960Z,76.84
2024-04-06T05:04:56.517Z,73.13
2024-04-06T05:09:59.329Z,69.39
2024-04-06T05:15:05.594Z,70.14
2024-04-06T05:20:09.980Z,68.35
2024-04-06T05:25:13.000Z,65.07
2024-04-06T05:30:15.836Z,60.32
2024-04-06T05:35:19.403Z,61.26
2024-04-06T05:40:23.884Z,61.46
2024-04-06T05:45:26.428Z,57.70
2024-04-06T05:50:34.991Z,54.22
2024-04-06T05:55:38.118Z,53.69
2024-04-06T06:00:43.495Z,51.31
2024-04-06T06:05:46.330Z,47.57
2024-04-06T06:10:51.462Z,46.02
2024-04-06T06:15:55.994Z,46.73
2024-04-06T06:21:06.919Z,45.99
2024-04-06T06:26:09.603Z,42.75
2024-04-06T06:31:17.367Z,44.86
2024-04-06T06:41:31.423Z,45.01
2024-04-06T06:46:35.934Z,44.82
2024-04-06T06:51:40.647Z,47.22
2024-04-06T06:56:46.206Z,49.36
2024-04-06T07:01:51.600Z,51.27
2024-04-06T07:12:00.254Z,52.86
2024-04-06T07:17:12.258Z,53.47
2024-04-06T07:22:16.529Z,54.87
2024-04-06T07:27:21.567Z,56.06
2024-04-06T07:32:24.272Z,56.99
2024-04-06T07:37:29.396Z,57.80
2024-04-06T07:42:35.008Z,57.21
2024-04-06T07:47:40.211Z,56.37
2024-04-06T07:52:45.283Z,55.17
2024-04-06T07:57:48.084Z,52.48
2024-04-06T08:02:51.235Z,51.67
2024-04-06T08:07:54.122Z,51.94
2024-04-06T08:12:59.499Z,48.40
2024-04-06T08:18:08.505Z,48.25
2024-04-06T08:23:19.263Z,48.01
2024-04-06T08:28:22.468Z,45.80
2024-04-06T08:33:26.406Z,42.81
2024-04-06T08:38:34.119Z,42.29
2024-04-06T08:43:44.376Z,41.15
2024-04-06T08:48:49.778Z,40.55
2024-04-06T08:53:58.069Z,41.17
2024-04-06T08:59:06.356Z,43.41
2024-04-06T09:04:09.035Z,39.85
2024-04-06T09:09:19.371Z,40.47
2024-04-06T09:14:25.807Z,38.91
2024-04-06T09:19:28.551Z,37.17
2024-04-06T09:24:33.275Z,37.22
2024-04-06T09:29:36.978Z,37.31
2024-04-06T09:34:54.123Z,37.19
2024-04-06T09:39:59.227Z,39.62
2024-04-06T09:45:09.172Z,37.96
2024-04-06T09:50:17.483Z,38.02
2024-04-06T09:55:20.301Z,36.04
2024-04-06T10:00:23.600Z,36.77
2024-04-06T10:06:20.106Z,36.92
2024-04-06T10:11:25.233Z,37.00
2024-04-06T10:16:33.253Z,36.52
2024-04-06T10:21:47.835Z,39.94
2024-04-06T10:26:56.029Z,38.41
2024-04-06T10:32:02.608Z,40.19
2024-04-06T10:37:08.219Z,40.85
2024-04-06T10:42:13.111Z,42.17
2024-04-06T10:47:21.708Z,45.44
2024-04-06T10:52:25.834Z,44.72
2024-04-06T10:57:31.141Z,45.92
2024-04-06T11:02:34.941Z,46.62
2024-04-06T11:07:43.139Z,47.26
2024-04-06T11:12:51.305Z,46.71
2024-04-06T11:17:56.210Z,46.48
2024-04-06T11:23:02.191Z,46.35
2024-04-06T11:28:06.046Z,45.91
2024-04-06T11:33:12.968Z,46.53
2024-04-06T11:38:22.632Z,46.93
2024-04-06T11:43:27.203Z,47.18
2024-04-06T11:49:00.207Z,46.94
2024-04-06T11:54:05.965Z,46.88
2024-04-06T11:59:09.126Z,46.89
2024-04-06T12:04:12.371Z,46.37
2024-04-06T12:09:17.618Z,46.41
2024-04-06T12:14:23.881Z,46.76
2024-04-06T12:19:27.513Z,46.46
2024-04-06T12:30:02.352Z,48.20
2024-04-06T12:35:08.356Z,48.85
2024-04-06T12:40:13.715Z,48.90
2024-04-06T12:45:16.643Z,49.09
2024-04-06T12:50:27.892Z,48.84
2024-04-06T12:55:33.603Z,48.73
2024-04-06T13:00:40.509Z,48.96
2024-04-06T13:05:43.351Z,49.20
2024-04-06T13:10:51.851Z,49.20
2024-04-06T13:15:57.331Z,49.13
2024-04-06T13:21:01.108Z,49.30
2024-04-06T13:26:07.252Z,49.42
2024-04-06T13:31:13.853Z,49.90
2024-04-06T13:36:16.587Z,49.73
2024-04-06T13:41:24.591Z,49.87
2024-04-06T13:46:27.402Z,49.77
2024-04-06T13:51:30.324Z,49.69
2024-04-06T13:56:35.594Z,49.73
2024-04-06T14:01:44.800Z,50.08
2024-04-06T14:06:48.060Z,50.66
2024-04-06T14:11:50.715Z,51.00
2024-04-06T14:16:53.631Z,51.33
2024-04-06T14:21:57.118Z,51.50
2024-04-06T14:26:59.762Z,51.28
2024-04-06T14:32:08.021Z,50.90
2024-04-06T14:37:11.458Z,50.93
2024-04-06T14:42:14.184Z,51.10
2024-04-06T14:47:16.851Z,51.64
2024-04-06T14:52:21.764Z,52.25
2024-04-06T14:57:24.569Z,52.19
2024-04-06T15:02:27.261Z,52.57
2024-04-06T15:07:54.693Z,52.80
2024-04-06T15:13:07.528Z,53.15
2024-04-06T15:18:13.701Z,53.22
2024-04-06T15:23:17.098Z,53.44
2024-04-06T15:28:24.126Z,53.72
2024-04-06T15:33:27.018Z,54.00
2024-04-06T15:38:30.741Z,54.19
2024-04-06T15:43:39.348Z,54.20
2024-04-06T15:48:46.472Z,54.09
2024-04-06T15:53:49.287Z,54.42
2024-04-06T15:58:53.499Z,54.96
2024-04-06T16:04:01.741Z,55.23
2024-04-06T16:09:04.610Z,55.56
2024-04-06T16:14:13.434Z,56.21
2024-04-06T16:19:16.490Z,56.73
2024-04-06T16:24:24.171Z,57.03
2024-04-06T16:29:32.427Z,57.33
2024-04-06T16:34:41.873Z,57.80
2024-04-06T16:39:45.118Z,58.15
2024-04-06T16:44:50.630Z,58.25
2024-04-06T16:49:55.258Z,59.13
2024-04-06T16:55:00.111Z,59.81
2024-04-06T17:00:08.364Z,62.54
2024-04-06T17:05:12.372Z,60.40
2024-04-06T17:10:15.404Z,60.07
2024-04-06T17:15:18.720Z,61.62
2024-04-06T17:20:23.425Z,61.67
2024-04-06T17:25:29.179Z,62.99
2024-04-06T17:30:34.431Z,63.02
2024-04-06T17:35:38.482Z,60.76
2024-04-06T17:40:43.796Z,60.08
2024-04-06T17:45:46.340Z,59.89
2024-04-06T17:50:49.220Z,61.74
2024-04-06T17:55:51.996Z,64.22
2024-04-06T18:00:55.880Z,64.64
2024-04-06T18:06:00.106Z,65.26
2024-04-06T18:11:07.727Z,64.54
2024-04-06T18:16:22.891Z,63.97
2024-04-06T18:21:31.527Z,63.88
2024-04-06T18:26:40.573Z,64.22
2024-04-06T18:31:46.205Z,64.61
2024-04-06T18:36:51.006Z,65.58
2024-04-06T18:42:05.018Z,66.55
2024-04-06T18:47:07.731Z,66.95
2024-04-06T18:52:13.027Z,67.48
2024-04-06T18:57:23.573Z,67.93
2024-04-06T19:02:28.313Z,68.38
2024-04-06T19:07:33.632Z,68.65
2024-04-06T19:12:42.743Z,68.82
2024-04-06T19:17:47.404Z,69.53
2024-04-06T19:22:50.565Z,70.00
2024-04-06T19:27:53.411Z,70.34
2024-04-06T19:33:01.469Z,70.66
2024-04-06T19:38:04.599Z,70.95
2024-04-06T19:43:16.171Z,71.38
2024-04-06T19:48:18.964Z,71.55
2024-04-06T19:53:23.206Z,71.81
2024-04-06T19:58:26.486Z,72.02
2024-04-06T20:03:29.502Z,72.16
2024-04-06T20:08:32.301Z,72.21
2024-04-06T20:13:37.222Z,71.98
2024-04-06T20:18:42.233Z,71.87
2024-04-06T20:24:13.047Z,72.29
2024-04-06T20:29:19.384Z,72.54
2024-04-06T20:34:26.924Z,72.34
2024-04-06T20:39:29.730Z,72.50
2024-04-06T20:44:35.279Z,71.54
2024-04-06T20:49:40.519Z,72.26
2024-04-06T20:54:44.898Z,72.24
2024-04-06T20:59:47.478Z,73.31
2024-04-06T21:04:52.594Z,71.96
2024-04-06T21:10:00.717Z,72.90
2024-04-06T21:15:27.255Z,73.10
2024-04-06T21:20:34.011Z,73.27
2024-04-06T21:25:37.215Z,73.20
2024-04-06T21:30:40.401Z,73.55
2024-04-06T21:35:46.357Z,73.35
2024-04-06T21:40:52.019Z,73.38
2024-04-06T21:45:57.627Z,73.47
2024-04-06T21:51:04.591Z,73.37
2024-04-06T21:56:08.709Z,73.67
2024-04-06T22:01:15.298Z,73.88
2024-04-06T22:06:18.402Z,73.79
2024-04-06T22:11:23.092Z,74.00
2024-04-06T22:16:29.580Z,74.62
2024-04-06T22:21:33.553Z,74.65
2024-04-06T22:26:36.175Z,74.57
2024-04-06T22:34:38.892Z,74.80
2024-04-06T22:39:46.657Z,74.96
2024-04-06T22:44:50.023Z,75.12
2024-04-06T22:49:55.345Z,75.17
2024-04-06T22:54:58.070Z,74.84
2024-04-06T23:00:03.094Z,75.03
2024-04-06T23:05:07.020Z,75.01
2024-04-06T23:10:14.134Z,75.17
2024-04-06T23:15:18.201Z,75.50
2024-04-06T23:20:22.212Z,75.37
2024-04-06T23:25:25.084Z,75.31
2024-04-06T23:30:27.705Z,74.74
2024-04-06T23:35:32.621Z,75.22
2024-04-06T23:40:42.978Z,75.88
2024-04-06T23:45:45.845Z,76.01
2024-04-06T23:51:15.167Z,76.00
2024-04-06T23:56:19.875Z,76.85
